sensor_id;sensor_type;location;lat;lon;timestamp;P1;durP1;ratioP1;P2;durP2;ratioP2
4565;SDS011;2295;51.050;14.608;2023-06-04T00:02:03;3.55;;;2.30;;
4565;SDS011;2295;51.050;14.608;2023-06-04T00:04:33;5.07;;;2.35;;
4565;SDS011;2295;51.050;14.608;2023-06-04T00:07:01;3.55;;;2.67;;
4565;SDS011;2295;51.050;14.608;2023-06-04T00:09:33;2.75;;;2.28;;
4565;SDS011;2295;51.050;14.608;2023-06-04T00:12:01;3.25;;;2.30;;
4565;SDS011;2295;51.050;14.608;2023-06-04T00:14:30;4.95;;;2.88;;
4565;SDS011;2295;51.050;14.608;2023-06-04T00:16:58;3.20;;;2.60;;
4565;SDS011;2295;51.050;14.608;2023-06-04T00:19:26;3.03;;;2.47;;
4565;SDS011;2295;51.050;14.608;2023-06-04T00:21:56;6.20;;;2.70;;
4565;SDS011;2295;51.050;14.608;2023-06-04T00:24:24;2.78;;;2.20;;
4565;SDS011;2295;51.050;14.608;2023-06-04T00:26:53;7.07;;;2.42;;
4565;SDS011;2295;51.050;14.608;2023-06-04T00:29:21;6.55;;;2.63;;
4565;SDS011;2295;51.050;14.608;2023-06-04T00:31:49;5.40;;;2.40;;
4565;SDS011;2295;51.050;14.608;2023-06-04T00:34:17;7.18;;;2.42;;
4565;SDS011;2295;51.050;14.608;2023-06-04T00:36:46;5.30;;;2.38;;
4565;SDS011;2295;51.050;14.608;2023-06-04T00:39:15;4.28;;;2.33;;
4565;SDS011;2295;51.050;14.608;2023-06-04T00:41:44;3.38;;;2.20;;
4565;SDS011;2295;51.050;14.608;2023-06-04T00:44:12;3.22;;;2.40;;
4565;SDS011;2295;51.050;14.608;2023-06-04T00:46:40;10.25;;;2.47;;
4565;SDS011;2295;51.050;14.608;2023-06-04T00:49:12;3.20;;;2.70;;
4565;SDS011;2295;51.050;14.608;2023-06-04T00:51:40;2.92;;;2.13;;
4565;SDS011;2295;51.050;14.608;2023-06-04T00:54:08;2.95;;;1.92;;
4565;SDS011;2295;51.050;14.608;2023-06-04T00:56:39;10.43;;;2.35;;
4565;SDS011;2295;51.050;14.608;2023-06-04T00:59:08;5.25;;;2.35;;
4565;SDS011;2295;51.050;14.608;2023-06-04T01:01:38;2.50;;;2.25;;
4565;SDS011;2295;51.050;14.608;2023-06-04T01:04:16;2.88;;;2.00;;
4565;SDS011;2295;51.050;14.608;2023-06-04T01:06:49;2.55;;;2.10;;
4565;SDS011;2295;51.050;14.608;2023-06-04T01:09:18;3.45;;;2.03;;
4565;SDS011;2295;51.050;14.608;2023-06-04T01:11:49;3.05;;;2.13;;
4565;SDS011;2295;51.050;14.608;2023-06-04T01:14:17;2.80;;;2.17;;
4565;SDS011;2295;51.050;14.608;2023-06-04T01:16:46;7.03;;;2.60;;
4565;SDS011;2295;51.050;14.608;2023-06-04T01:19:22;6.25;;;2.72;;
4565;SDS011;2295;51.050;14.608;2023-06-04T01:22:16;2.47;;;2.25;;
4565;SDS011;2295;51.050;14.608;2023-06-04T01:24:52;3.58;;;2.42;;
4565;SDS011;2295;51.050;14.608;2023-06-04T01:27:24;3.35;;;2.50;;
4565;SDS011;2295;51.050;14.608;2023-06-04T01:29:53;4.50;;;2.50;;
4565;SDS011;2295;51.050;14.608;2023-06-04T01:32:23;2.72;;;2.45;;
4565;SDS011;2295;51.050;14.608;2023-06-04T01:34:52;2.92;;;2.33;;
4565;SDS011;2295;51.050;14.608;2023-06-04T01:37:21;3.22;;;2.20;;
4565;SDS011;2295;51.050;14.608;2023-06-04T01:39:50;4.40;;;3.10;;
4565;SDS011;2295;51.050;14.608;2023-06-04T01:42:18;7.20;;;4.03;;
4565;SDS011;2295;51.050;14.608;2023-06-04T01:44:48;8.23;;;3.83;;
4565;SDS011;2295;51.050;14.608;2023-06-04T01:47:16;4.78;;;3.58;;
4565;SDS011;2295;51.050;14.608;2023-06-04T01:49:44;4.55;;;3.50;;
4565;SDS011;2295;51.050;14.608;2023-06-04T01:52:13;6.57;;;3.72;;
4565;SDS011;2295;51.050;14.608;2023-06-04T01:54:42;5.35;;;3.45;;
4565;SDS011;2295;51.050;14.608;2023-06-04T01:57:10;6.78;;;3.45;;
4565;SDS011;2295;51.050;14.608;2023-06-04T01:59:39;6.30;;;4.15;;
4565;SDS011;2295;51.050;14.608;2023-06-04T02:02:09;5.68;;;3.97;;
4565;SDS011;2295;51.050;14.608;2023-06-04T02:04:38;8.77;;;4.18;;
4565;SDS011;2295;51.050;14.608;2023-06-04T02:07:08;4.35;;;3.83;;
4565;SDS011;2295;51.050;14.608;2023-06-04T02:09:36;5.05;;;3.75;;
4565;SDS011;2295;51.050;14.608;2023-06-04T02:12:05;9.95;;;3.97;;
4565;SDS011;2295;51.050;14.608;2023-06-04T02:14:34;5.05;;;3.58;;
4565;SDS011;2295;51.050;14.608;2023-06-04T02:17:03;5.45;;;4.15;;
4565;SDS011;2295;51.050;14.608;2023-06-04T02:19:40;5.05;;;3.38;;
4565;SDS011;2295;51.050;14.608;2023-06-04T02:22:11;4.82;;;3.25;;
4565;SDS011;2295;51.050;14.608;2023-06-04T02:24:39;4.00;;;3.58;;
4565;SDS011;2295;51.050;14.608;2023-06-04T02:27:08;5.10;;;4.20;;
4565;SDS011;2295;51.050;14.608;2023-06-04T02:29:38;9.45;;;3.85;;
4565;SDS011;2295;51.050;14.608;2023-06-04T02:32:07;5.97;;;4.10;;
4565;SDS011;2295;51.050;14.608;2023-06-04T02:34:36;6.50;;;3.90;;
4565;SDS011;2295;51.050;14.608;2023-06-04T02:37:06;4.50;;;3.45;;
4565;SDS011;2295;51.050;14.608;2023-06-04T02:39:34;3.70;;;3.40;;
4565;SDS011;2295;51.050;14.608;2023-06-04T02:42:03;4.88;;;3.50;;
4565;SDS011;2295;51.050;14.608;2023-06-04T02:44:32;4.78;;;3.50;;
4565;SDS011;2295;51.050;14.608;2023-06-04T02:47:00;5.00;;;3.80;;
4565;SDS011;2295;51.050;14.608;2023-06-04T02:49:28;6.65;;;3.85;;
4565;SDS011;2295;51.050;14.608;2023-06-04T02:51:57;5.20;;;4.00;;
4565;SDS011;2295;51.050;14.608;2023-06-04T02:54:27;5.68;;;4.18;;
4565;SDS011;2295;51.050;14.608;2023-06-04T02:56:55;5.60;;;4.13;;
4565;SDS011;2295;51.050;14.608;2023-06-04T02:59:23;6.80;;;4.55;;
4565;SDS011;2295;51.050;14.608;2023-06-04T03:01:52;5.10;;;3.88;;
4565;SDS011;2295;51.050;14.608;2023-06-04T03:04:20;8.45;;;4.30;;
4565;SDS011;2295;51.050;14.608;2023-06-04T03:06:49;5.88;;;4.05;;
4565;SDS011;2295;51.050;14.608;2023-06-04T03:09:23;4.82;;;3.80;;
4565;SDS011;2295;51.050;14.608;2023-06-04T03:11:53;10.13;;;4.65;;
4565;SDS011;2295;51.050;14.608;2023-06-04T03:14:21;5.25;;;3.42;;
4565;SDS011;2295;51.050;14.608;2023-06-04T03:16:50;4.10;;;3.25;;
4565;SDS011;2295;51.050;14.608;2023-06-04T03:19:18;5.20;;;3.55;;
4565;SDS011;2295;51.050;14.608;2023-06-04T03:21:47;4.35;;;3.33;;
4565;SDS011;2295;51.050;14.608;2023-06-04T03:24:18;5.60;;;3.47;;
4565;SDS011;2295;51.050;14.608;2023-06-04T03:26:46;5.80;;;3.17;;
4565;SDS011;2295;51.050;14.608;2023-06-04T03:29:16;5.28;;;4.00;;
4565;SDS011;2295;51.050;14.608;2023-06-04T03:31:44;5.53;;;3.50;;
4565;SDS011;2295;51.050;14.608;2023-06-04T03:34:13;4.20;;;3.45;;
4565;SDS011;2295;51.050;14.608;2023-06-04T03:36:41;6.60;;;4.10;;
4565;SDS011;2295;51.050;14.608;2023-06-04T03:39:10;5.22;;;3.40;;
4565;SDS011;2295;51.050;14.608;2023-06-04T03:41:38;5.88;;;3.70;;
4565;SDS011;2295;51.050;14.608;2023-06-04T03:44:06;3.70;;;2.92;;
4565;SDS011;2295;51.050;14.608;2023-06-04T03:46:36;6.20;;;3.70;;
4565;SDS011;2295;51.050;14.608;2023-06-04T03:49:04;6.57;;;4.07;;
4565;SDS011;2295;51.050;14.608;2023-06-04T03:51:33;7.57;;;4.20;;
4565;SDS011;2295;51.050;14.608;2023-06-04T03:54:01;4.18;;;3.30;;
4565;SDS011;2295;51.050;14.608;2023-06-04T03:56:30;6.20;;;3.47;;
4565;SDS011;2295;51.050;14.608;2023-06-04T03:58:58;5.13;;;3.35;;
4565;SDS011;2295;51.050;14.608;2023-06-04T04:01:27;5.50;;;3.30;;
4565;SDS011;2295;51.050;14.608;2023-06-04T04:03:57;5.78;;;3.63;;
4565;SDS011;2295;51.050;14.608;2023-06-04T04:06:26;6.05;;;3.78;;
4565;SDS011;2295;51.050;14.608;2023-06-04T04:08:54;6.68;;;3.90;;
4565;SDS011;2295;51.050;14.608;2023-06-04T04:11:22;5.00;;;3.40;;
4565;SDS011;2295;51.050;14.608;2023-06-04T04:13:52;4.43;;;3.00;;
4565;SDS011;2295;51.050;14.608;2023-06-04T04:16:20;5.40;;;3.38;;
4565;SDS011;2295;51.050;14.608;2023-06-04T04:18:48;10.20;;;3.47;;
4565;SDS011;2295;51.050;14.608;2023-06-04T04:21:18;3.83;;;3.50;;
4565;SDS011;2295;51.050;14.608;2023-06-04T04:23:48;4.78;;;3.40;;
4565;SDS011;2295;51.050;14.608;2023-06-04T04:26:18;4.63;;;3.15;;
4565;SDS011;2295;51.050;14.608;2023-06-04T04:28:46;4.90;;;3.17;;
4565;SDS011;2295;51.050;14.608;2023-06-04T04:31:14;3.65;;;3.00;;
4565;SDS011;2295;51.050;14.608;2023-06-04T04:33:44;4.43;;;3.20;;
4565;SDS011;2295;51.050;14.608;2023-06-04T04:36:13;3.97;;;3.15;;
4565;SDS011;2295;51.050;14.608;2023-06-04T04:38:42;5.13;;;2.95;;
4565;SDS011;2295;51.050;14.608;2023-06-04T04:41:11;4.28;;;2.55;;
4565;SDS011;2295;51.050;14.608;2023-06-04T04:43:39;5.15;;;3.40;;
4565;SDS011;2295;51.050;14.608;2023-06-04T04:46:07;3.55;;;2.30;;
4565;SDS011;2295;51.050;14.608;2023-06-04T04:48:36;5.93;;;2.90;;
4565;SDS011;2295;51.050;14.608;2023-06-04T04:51:07;6.45;;;3.20;;
4565;SDS011;2295;51.050;14.608;2023-06-04T04:53:35;4.90;;;2.45;;
4565;SDS011;2295;51.050;14.608;2023-06-04T04:56:04;5.45;;;2.60;;
4565;SDS011;2295;51.050;14.608;2023-06-04T04:58:33;3.55;;;2.15;;
4565;SDS011;2295;51.050;14.608;2023-06-04T05:01:01;2.97;;;2.20;;
4565;SDS011;2295;51.050;14.608;2023-06-04T05:03:30;3.92;;;2.35;;
4565;SDS011;2295;51.050;14.608;2023-06-04T05:05:58;3.60;;;2.15;;
4565;SDS011;2295;51.050;14.608;2023-06-04T05:08:26;3.10;;;2.35;;
4565;SDS011;2295;51.050;14.608;2023-06-04T05:10:55;2.17;;;1.98;;
4565;SDS011;2295;51.050;14.608;2023-06-04T05:13:24;4.77;;;2.63;;
4565;SDS011;2295;51.050;14.608;2023-06-04T05:15:53;1.83;;;1.70;;
4565;SDS011;2295;51.050;14.608;2023-06-04T05:18:21;2.50;;;1.67;;
4565;SDS011;2295;51.050;14.608;2023-06-04T05:20:55;6.20;;;1.87;;
4565;SDS011;2295;51.050;14.608;2023-06-04T05:23:24;3.03;;;2.30;;
4565;SDS011;2295;51.050;14.608;2023-06-04T05:25:52;2.30;;;2.10;;
4565;SDS011;2295;51.050;14.608;2023-06-04T05:28:21;2.40;;;2.13;;
4565;SDS011;2295;51.050;14.608;2023-06-04T05:30:53;2.70;;;1.70;;
4565;SDS011;2295;51.050;14.608;2023-06-04T05:33:25;1.83;;;1.73;;
4565;SDS011;2295;51.050;14.608;2023-06-04T05:35:54;3.13;;;1.73;;
4565;SDS011;2295;51.050;14.608;2023-06-04T05:38:25;1.70;;;1.60;;
4565;SDS011;2295;51.050;14.608;2023-06-04T05:40:53;3.60;;;1.47;;
4565;SDS011;2295;51.050;14.608;2023-06-04T05:43:22;3.17;;;1.87;;
4565;SDS011;2295;51.050;14.608;2023-06-04T05:45:50;3.57;;;1.43;;
4565;SDS011;2295;51.050;14.608;2023-06-04T05:48:20;2.23;;;1.50;;
4565;SDS011;2295;51.050;14.608;2023-06-04T05:50:49;2.17;;;1.93;;
4565;SDS011;2295;51.050;14.608;2023-06-04T05:53:17;1.97;;;1.60;;
4565;SDS011;2295;51.050;14.608;2023-06-04T05:55:45;7.03;;;1.80;;
4565;SDS011;2295;51.050;14.608;2023-06-04T05:58:13;3.40;;;1.50;;
4565;SDS011;2295;51.050;14.608;2023-06-04T06:00:42;1.70;;;1.60;;
4565;SDS011;2295;51.050;14.608;2023-06-04T06:03:12;3.43;;;1.30;;
4565;SDS011;2295;51.050;14.608;2023-06-04T06:05:43;5.30;;;1.80;;
4565;SDS011;2295;51.050;14.608;2023-06-04T06:08:11;1.57;;;1.47;;
4565;SDS011;2295;51.050;14.608;2023-06-04T06:10:41;3.53;;;1.33;;
4565;SDS011;2295;51.050;14.608;2023-06-04T06:13:09;6.63;;;1.30;;
4565;SDS011;2295;51.050;14.608;2023-06-04T06:15:38;3.80;;;1.40;;
4565;SDS011;2295;51.050;14.608;2023-06-04T06:18:06;1.50;;;1.40;;
4565;SDS011;2295;51.050;14.608;2023-06-04T06:20:36;1.20;;;1.10;;
4565;SDS011;2295;51.050;14.608;2023-06-04T06:23:05;1.90;;;1.00;;
4565;SDS011;2295;51.050;14.608;2023-06-04T06:25:37;1.40;;;1.20;;
4565;SDS011;2295;51.050;14.608;2023-06-04T06:28:06;3.10;;;1.30;;
4565;SDS011;2295;51.050;14.608;2023-06-04T06:30:35;1.20;;;1.10;;
4565;SDS011;2295;51.050;14.608;2023-06-04T06:33:03;3.60;;;1.33;;
4565;SDS011;2295;51.050;14.608;2023-06-04T06:35:34;18.57;;;12.00;;
4565;SDS011;2295;51.050;14.608;2023-06-04T06:38:04;41.40;;;15.73;;
4565;SDS011;2295;51.050;14.608;2023-06-04T06:40:32;18.83;;;5.60;;
4565;SDS011;2295;51.050;14.608;2023-06-04T06:43:01;2.60;;;1.83;;
4565;SDS011;2295;51.050;14.608;2023-06-04T06:45:29;2.20;;;1.63;;
4565;SDS011;2295;51.050;14.608;2023-06-04T06:47:57;2.87;;;1.87;;
4565;SDS011;2295;51.050;14.608;2023-06-04T06:50:26;5.23;;;1.47;;
4565;SDS011;2295;51.050;14.608;2023-06-04T06:52:55;1.40;;;1.30;;
4565;SDS011;2295;51.050;14.608;2023-06-04T06:55:24;1.50;;;1.40;;
4565;SDS011;2295;51.050;14.608;2023-06-04T06:57:52;2.10;;;1.70;;
4565;SDS011;2295;51.050;14.608;2023-06-04T07:00:23;1.60;;;1.30;;
4565;SDS011;2295;51.050;14.608;2023-06-04T07:02:51;3.40;;;1.37;;
4565;SDS011;2295;51.050;14.608;2023-06-04T07:05:20;4.57;;;1.33;;
4565;SDS011;2295;51.050;14.608;2023-06-04T07:07:48;2.60;;;1.50;;
4565;SDS011;2295;51.050;14.608;2023-06-04T07:10:18;2.10;;;1.07;;
4565;SDS011;2295;51.050;14.608;2023-06-04T07:12:46;3.63;;;1.53;;
4565;SDS011;2295;51.050;14.608;2023-06-04T07:15:14;2.00;;;1.30;;
4565;SDS011;2295;51.050;14.608;2023-06-04T07:17:43;3.20;;;1.77;;
4565;SDS011;2295;51.050;14.608;2023-06-04T07:20:11;2.40;;;1.10;;
4565;SDS011;2295;51.050;14.608;2023-06-04T07:22:42;2.60;;;1.90;;
4565;SDS011;2295;51.050;14.608;2023-06-04T07:25:10;2.07;;;1.60;;
4565;SDS011;2295;51.050;14.608;2023-06-04T07:27:40;2.50;;;1.50;;
4565;SDS011;2295;51.050;14.608;2023-06-04T07:30:09;2.73;;;1.50;;
4565;SDS011;2295;51.050;14.608;2023-06-04T07:32:37;2.13;;;1.10;;
4565;SDS011;2295;51.050;14.608;2023-06-04T07:35:06;1.77;;;1.40;;
4565;SDS011;2295;51.050;14.608;2023-06-04T07:37:35;2.23;;;1.37;;
4565;SDS011;2295;51.050;14.608;2023-06-04T07:40:04;3.07;;;1.60;;
4565;SDS011;2295;51.050;14.608;2023-06-04T07:42:33;5.30;;;1.60;;
4565;SDS011;2295;51.050;14.608;2023-06-04T07:45:03;1.50;;;1.40;;
4565;SDS011;2295;51.050;14.608;2023-06-04T07:47:31;1.53;;;1.00;;
4565;SDS011;2295;51.050;14.608;2023-06-04T07:50:00;2.70;;;1.73;;
4565;SDS011;2295;51.050;14.608;2023-06-04T07:52:29;2.57;;;1.43;;
4565;SDS011;2295;51.050;14.608;2023-06-04T07:54:57;3.33;;;1.40;;
4565;SDS011;2295;51.050;14.608;2023-06-04T07:57:29;2.90;;;1.50;;
4565;SDS011;2295;51.050;14.608;2023-06-04T07:59:58;1.50;;;1.30;;
4565;SDS011;2295;51.050;14.608;2023-06-04T08:02:29;2.80;;;1.50;;
4565;SDS011;2295;51.050;14.608;2023-06-04T08:04:57;4.23;;;1.67;;
4565;SDS011;2295;51.050;14.608;2023-06-04T08:07:26;4.93;;;1.43;;
4565;SDS011;2295;51.050;14.608;2023-06-04T08:09:54;3.97;;;1.33;;
4565;SDS011;2295;51.050;14.608;2023-06-04T08:12:23;4.33;;;2.00;;
4565;SDS011;2295;51.050;14.608;2023-06-04T08:14:51;1.80;;;1.30;;
4565;SDS011;2295;51.050;14.608;2023-06-04T08:17:23;2.23;;;1.67;;
4565;SDS011;2295;51.050;14.608;2023-06-04T08:19:53;4.73;;;1.80;;
4565;SDS011;2295;51.050;14.608;2023-06-04T08:22:21;4.70;;;1.53;;
4565;SDS011;2295;51.050;14.608;2023-06-04T08:24:49;3.87;;;2.23;;
4565;SDS011;2295;51.050;14.608;2023-06-04T08:27:18;2.17;;;1.97;;
4565;SDS011;2295;51.050;14.608;2023-06-04T08:29:46;5.43;;;1.70;;
4565;SDS011;2295;51.050;14.608;2023-06-04T08:32:17;10.73;;;1.73;;
4565;SDS011;2295;51.050;14.608;2023-06-04T08:34:48;2.37;;;1.33;;
4565;SDS011;2295;51.050;14.608;2023-06-04T08:37:18;5.73;;;1.23;;
4565;SDS011;2295;51.050;14.608;2023-06-04T08:39:47;1.90;;;1.40;;
4565;SDS011;2295;51.050;14.608;2023-06-04T08:42:15;3.80;;;1.50;;
4565;SDS011;2295;51.050;14.608;2023-06-04T08:44:49;1.60;;;1.50;;
4565;SDS011;2295;51.050;14.608;2023-06-04T08:47:19;2.53;;;1.10;;
4565;SDS011;2295;51.050;14.608;2023-06-04T08:49:49;3.37;;;1.30;;
4565;SDS011;2295;51.050;14.608;2023-06-04T08:52:22;3.70;;;2.20;;
4565;SDS011;2295;51.050;14.608;2023-06-04T08:54:52;2.60;;;1.00;;
4565;SDS011;2295;51.050;14.608;2023-06-04T08:57:23;2.90;;;1.40;;
4565;SDS011;2295;51.050;14.608;2023-06-04T08:59:51;2.60;;;1.30;;
4565;SDS011;2295;51.050;14.608;2023-06-04T09:02:20;1.50;;;1.30;;
4565;SDS011;2295;51.050;14.608;2023-06-04T09:04:48;3.13;;;1.20;;
4565;SDS011;2295;51.050;14.608;2023-06-04T09:07:17;1.60;;;1.30;;
4565;SDS011;2295;51.050;14.608;2023-06-04T09:09:47;2.03;;;1.50;;
4565;SDS011;2295;51.050;14.608;2023-06-04T09:12:36;1.50;;;1.17;;
4565;SDS011;2295;51.050;14.608;2023-06-04T09:15:09;1.43;;;1.27;;
4565;SDS011;2295;51.050;14.608;2023-06-04T09:17:38;4.30;;;1.23;;
4565;SDS011;2295;51.050;14.608;2023-06-04T09:20:06;2.30;;;1.10;;
4565;SDS011;2295;51.050;14.608;2023-06-04T09:22:36;2.90;;;1.30;;
4565;SDS011;2295;51.050;14.608;2023-06-04T09:25:07;1.23;;;1.13;;
4565;SDS011;2295;51.050;14.608;2023-06-04T09:27:47;4.10;;;1.37;;
4565;SDS011;2295;51.050;14.608;2023-06-04T09:30:16;1.40;;;1.10;;
4565;SDS011;2295;51.050;14.608;2023-06-04T09:32:45;1.23;;;0.93;;
4565;SDS011;2295;51.050;14.608;2023-06-04T09:35:14;1.90;;;1.03;;
4565;SDS011;2295;51.050;14.608;2023-06-04T09:37:53;2.20;;;1.10;;
4565;SDS011;2295;51.050;14.608;2023-06-04T09:40:34;1.47;;;1.37;;
4565;SDS011;2295;51.050;14.608;2023-06-04T09:43:05;1.97;;;1.30;;
4565;SDS011;2295;51.050;14.608;2023-06-04T09:45:34;5.53;;;1.40;;
4565;SDS011;2295;51.050;14.608;2023-06-04T09:48:03;1.67;;;1.53;;
4565;SDS011;2295;51.050;14.608;2023-06-04T09:50:35;3.60;;;1.50;;
4565;SDS011;2295;51.050;14.608;2023-06-04T09:53:12;1.70;;;1.30;;
4565;SDS011;2295;51.050;14.608;2023-06-04T09:55:43;5.60;;;1.37;;
4565;SDS011;2295;51.050;14.608;2023-06-04T09:58:12;1.47;;;1.10;;
4565;SDS011;2295;51.050;14.608;2023-06-04T10:00:41;1.60;;;1.50;;
4565;SDS011;2295;51.050;14.608;2023-06-04T10:03:15;1.10;;;1.00;;
4565;SDS011;2295;51.050;14.608;2023-06-04T10:05:49;1.40;;;1.20;;
4565;SDS011;2295;51.050;14.608;2023-06-04T10:08:20;4.97;;;1.27;;
4565;SDS011;2295;51.050;14.608;2023-06-04T10:10:51;2.23;;;1.30;;
4565;SDS011;2295;51.050;14.608;2023-06-04T10:13:22;1.97;;;1.53;;
4565;SDS011;2295;51.050;14.608;2023-06-04T10:15:54;2.73;;;1.30;;
4565;SDS011;2295;51.050;14.608;2023-06-04T10:18:26;1.30;;;1.20;;
4565;SDS011;2295;51.050;14.608;2023-06-04T10:20:59;2.50;;;1.10;;
4565;SDS011;2295;51.050;14.608;2023-06-04T10:23:28;1.87;;;1.37;;
4565;SDS011;2295;51.050;14.608;2023-06-04T10:25:58;5.90;;;1.77;;
4565;SDS011;2295;51.050;14.608;2023-06-04T10:28:27;1.30;;;1.20;;
4565;SDS011;2295;51.050;14.608;2023-06-04T10:30:58;2.93;;;1.33;;
4565;SDS011;2295;51.050;14.608;2023-06-04T10:33:27;1.27;;;0.90;;
4565;SDS011;2295;51.050;14.608;2023-06-04T10:35:56;1.43;;;1.30;;
4565;SDS011;2295;51.050;14.608;2023-06-04T10:38:24;4.10;;;1.63;;
4565;SDS011;2295;51.050;14.608;2023-06-04T10:40:52;3.60;;;1.40;;
4565;SDS011;2295;51.050;14.608;2023-06-04T10:43:22;2.87;;;1.10;;
4565;SDS011;2295;51.050;14.608;2023-06-04T10:45:58;1.30;;;1.10;;
4565;SDS011;2295;51.050;14.608;2023-06-04T10:48:44;3.50;;;1.10;;
4565;SDS011;2295;51.050;14.608;2023-06-04T10:51:13;4.37;;;1.33;;
4565;SDS011;2295;51.050;14.608;2023-06-04T10:53:42;1.60;;;1.50;;
4565;SDS011;2295;51.050;14.608;2023-06-04T10:56:10;1.20;;;1.10;;
4565;SDS011;2295;51.050;14.608;2023-06-04T10:58:40;2.97;;;1.00;;
4565;SDS011;2295;51.050;14.608;2023-06-04T11:01:08;7.00;;;1.50;;
4565;SDS011;2295;51.050;14.608;2023-06-04T11:03:37;1.70;;;1.20;;
4565;SDS011;2295;51.050;14.608;2023-06-04T11:06:15;1.30;;;1.20;;
4565;SDS011;2295;51.050;14.608;2023-06-04T11:08:44;1.43;;;1.00;;
4565;SDS011;2295;51.050;14.608;2023-06-04T11:11:12;1.90;;;1.43;;
4565;SDS011;2295;51.050;14.608;2023-06-04T11:13:43;1.40;;;1.10;;
4565;SDS011;2295;51.050;14.608;2023-06-04T11:16:14;1.37;;;1.23;;
4565;SDS011;2295;51.050;14.608;2023-06-04T11:18:53;2.30;;;1.00;;
4565;SDS011;2295;51.050;14.608;2023-06-04T11:21:22;2.57;;;1.20;;
4565;SDS011;2295;51.050;14.608;2023-06-04T11:23:54;1.10;;;1.00;;
4565;SDS011;2295;51.050;14.608;2023-06-04T11:26:29;1.27;;;1.10;;
4565;SDS011;2295;51.050;14.608;2023-06-04T11:29:00;1.90;;;1.10;;
4565;SDS011;2295;51.050;14.608;2023-06-04T11:31:29;1.13;;;1.00;;
4565;SDS011;2295;51.050;14.608;2023-06-04T11:34:09;5.10;;;1.30;;
4565;SDS011;2295;51.050;14.608;2023-06-04T11:36:38;2.27;;;1.20;;
4565;SDS011;2295;51.050;14.608;2023-06-04T11:39:06;2.10;;;1.40;;
4565;SDS011;2295;51.050;14.608;2023-06-04T11:41:35;1.47;;;1.23;;
4565;SDS011;2295;51.050;14.608;2023-06-04T11:44:06;1.33;;;1.20;;
4565;SDS011;2295;51.050;14.608;2023-06-04T11:46:39;1.80;;;0.93;;
4565;SDS011;2295;51.050;14.608;2023-06-04T11:49:11;2.30;;;1.20;;
4565;SDS011;2295;51.050;14.608;2023-06-04T11:51:45;1.83;;;1.00;;
4565;SDS011;2295;51.050;14.608;2023-06-04T11:54:17;1.40;;;1.17;;
4565;SDS011;2295;51.050;14.608;2023-06-04T11:56:48;2.40;;;1.00;;
4565;SDS011;2295;51.050;14.608;2023-06-04T11:59:19;1.53;;;1.20;;
4565;SDS011;2295;51.050;14.608;2023-06-04T12:01:48;1.17;;;1.07;;
4565;SDS011;2295;51.050;14.608;2023-06-04T12:04:17;1.87;;;1.20;;
4565;SDS011;2295;51.050;14.608;2023-06-04T12:06:50;1.10;;;1.00;;
4565;SDS011;2295;51.050;14.608;2023-06-04T12:09:20;1.70;;;1.40;;
4565;SDS011;2295;51.050;14.608;2023-06-04T12:11:49;3.50;;;1.20;;
4565;SDS011;2295;51.050;14.608;2023-06-04T12:14:18;3.23;;;1.40;;
4565;SDS011;2295;51.050;14.608;2023-06-04T12:16:55;2.00;;;1.10;;
4565;SDS011;2295;51.050;14.608;2023-06-04T12:19:23;1.60;;;1.13;;
4565;SDS011;2295;51.050;14.608;2023-06-04T12:21:58;2.63;;;1.20;;
4565;SDS011;2295;51.050;14.608;2023-06-04T12:24:29;1.63;;;0.93;;
4565;SDS011;2295;51.050;14.608;2023-06-04T12:27:04;3.97;;;1.23;;
4565;SDS011;2295;51.050;14.608;2023-06-04T12:29:36;1.23;;;0.90;;
4565;SDS011;2295;51.050;14.608;2023-06-04T12:32:05;1.67;;;1.07;;
4565;SDS011;2295;51.050;14.608;2023-06-04T12:34:38;1.97;;;1.30;;
4565;SDS011;2295;51.050;14.608;2023-06-04T12:37:07;1.20;;;1.10;;
4565;SDS011;2295;51.050;14.608;2023-06-04T12:39:36;2.00;;;1.20;;
4565;SDS011;2295;51.050;14.608;2023-06-04T12:42:05;3.57;;;1.13;;
4565;SDS011;2295;51.050;14.608;2023-06-04T12:44:36;2.93;;;1.00;;
4565;SDS011;2295;51.050;14.608;2023-06-04T12:47:09;1.30;;;1.20;;
4565;SDS011;2295;51.050;14.608;2023-06-04T12:49:38;1.40;;;1.30;;
4565;SDS011;2295;51.050;14.608;2023-06-04T12:52:06;1.23;;;0.90;;
4565;SDS011;2295;51.050;14.608;2023-06-04T12:54:41;1.10;;;1.00;;
4565;SDS011;2295;51.050;14.608;2023-06-04T12:57:09;2.73;;;0.90;;
4565;SDS011;2295;51.050;14.608;2023-06-04T12:59:39;1.03;;;0.93;;
4565;SDS011;2295;51.050;14.608;2023-06-04T13:02:08;1.10;;;1.00;;
4565;SDS011;2295;51.050;14.608;2023-06-04T13:04:36;1.40;;;1.30;;
4565;SDS011;2295;51.050;14.608;2023-06-04T13:07:04;1.87;;;1.20;;
4565;SDS011;2295;51.050;14.608;2023-06-04T13:09:33;1.50;;;1.20;;
4565;SDS011;2295;51.050;14.608;2023-06-04T13:12:01;1.20;;;1.10;;
4565;SDS011;2295;51.050;14.608;2023-06-04T13:14:31;2.73;;;1.10;;
4565;SDS011;2295;51.050;14.608;2023-06-04T13:17:04;3.63;;;1.20;;
4565;SDS011;2295;51.050;14.608;2023-06-04T13:19:47;1.10;;;1.00;;
4565;SDS011;2295;51.050;14.608;2023-06-04T13:22:15;1.10;;;1.00;;
4565;SDS011;2295;51.050;14.608;2023-06-04T13:24:44;1.03;;;0.93;;
4565;SDS011;2295;51.050;14.608;2023-06-04T13:27:12;1.60;;;1.10;;
4565;SDS011;2295;51.050;14.608;2023-06-04T13:29:40;1.73;;;0.90;;
4565;SDS011;2295;51.050;14.608;2023-06-04T13:32:11;1.40;;;1.30;;
4565;SDS011;2295;51.050;14.608;2023-06-04T13:34:40;1.10;;;1.00;;
4565;SDS011;2295;51.050;14.608;2023-06-04T13:37:08;3.23;;;1.10;;
4565;SDS011;2295;51.050;14.608;2023-06-04T13:39:38;2.80;;;1.00;;
4565;SDS011;2295;51.050;14.608;2023-06-04T13:42:06;1.53;;;1.37;;
4565;SDS011;2295;51.050;14.608;2023-06-04T13:44:35;1.13;;;1.03;;
4565;SDS011;2295;51.050;14.608;2023-06-04T13:47:03;2.50;;;1.00;;
4565;SDS011;2295;51.050;14.608;2023-06-04T13:49:33;2.47;;;1.43;;
4565;SDS011;2295;51.050;14.608;2023-06-04T13:52:02;1.10;;;1.00;;
4565;SDS011;2295;51.050;14.608;2023-06-04T13:54:30;1.30;;;1.20;;
4565;SDS011;2295;51.050;14.608;2023-06-04T13:57:01;2.50;;;1.50;;
4565;SDS011;2295;51.050;14.608;2023-06-04T13:59:30;4.50;;;0.90;;
4565;SDS011;2295;51.050;14.608;2023-06-04T14:01:59;2.80;;;1.37;;
4565;SDS011;2295;51.050;14.608;2023-06-04T14:04:27;1.30;;;1.10;;
4565;SDS011;2295;51.050;14.608;2023-06-04T14:06:57;2.03;;;1.10;;
4565;SDS011;2295;51.050;14.608;2023-06-04T14:09:25;1.20;;;1.10;;
4565;SDS011;2295;51.050;14.608;2023-06-04T14:11:54;2.37;;;1.40;;
4565;SDS011;2295;51.050;14.608;2023-06-04T14:14:22;1.77;;;1.00;;
4565;SDS011;2295;51.050;14.608;2023-06-04T14:16:50;9.90;;;2.00;;
4565;SDS011;2295;51.050;14.608;2023-06-04T14:19:24;1.40;;;1.00;;
4565;SDS011;2295;51.050;14.608;2023-06-04T14:21:52;1.20;;;1.10;;
4565;SDS011;2295;51.050;14.608;2023-06-04T14:24:22;0.97;;;0.97;;
4565;SDS011;2295;51.050;14.608;2023-06-04T14:26:50;1.10;;;1.00;;
4565;SDS011;2295;51.050;14.608;2023-06-04T14:29:18;1.13;;;0.97;;
4565;SDS011;2295;51.050;14.608;2023-06-04T14:31:46;1.30;;;1.20;;
4565;SDS011;2295;51.050;14.608;2023-06-04T14:34:15;3.43;;;1.30;;
4565;SDS011;2295;51.050;14.608;2023-06-04T14:36:43;2.10;;;1.20;;
4565;SDS011;2295;51.050;14.608;2023-06-04T14:39:11;1.57;;;1.10;;
4565;SDS011;2295;51.050;14.608;2023-06-04T14:41:41;1.10;;;1.00;;
4565;SDS011;2295;51.050;14.608;2023-06-04T14:44:09;2.10;;;1.20;;
4565;SDS011;2295;51.050;14.608;2023-06-04T14:46:38;1.60;;;1.10;;
4565;SDS011;2295;51.050;14.608;2023-06-04T14:49:07;2.70;;;1.20;;
4565;SDS011;2295;51.050;14.608;2023-06-04T14:51:36;3.73;;;1.03;;
4565;SDS011;2295;51.050;14.608;2023-06-04T14:54:04;1.20;;;1.10;;
4565;SDS011;2295;51.050;14.608;2023-06-04T14:56:32;5.37;;;1.40;;
4565;SDS011;2295;51.050;14.608;2023-06-04T14:59:02;1.60;;;1.40;;
4565;SDS011;2295;51.050;14.608;2023-06-04T15:01:37;1.67;;;1.13;;
4565;SDS011;2295;51.050;14.608;2023-06-04T15:04:07;3.47;;;1.03;;
4565;SDS011;2295;51.050;14.608;2023-06-04T15:06:38;1.33;;;1.13;;
4565;SDS011;2295;51.050;14.608;2023-06-04T15:09:06;5.60;;;1.20;;
4565;SDS011;2295;51.050;14.608;2023-06-04T15:11:34;1.40;;;1.20;;
4565;SDS011;2295;51.050;14.608;2023-06-04T15:14:04;3.07;;;1.27;;
4565;SDS011;2295;51.050;14.608;2023-06-04T15:16:32;1.40;;;1.10;;